Time;durP1;ratioP1;P1;durP2;ratioP2;P2;SDS_P1;SDS_P2;PMS_P1;PMS_P2;Temp;Humidity;BMP_temperature;BMP_pressure;BME280_temperature;BME280_humidity;BME280_pressure;Samples;Min_cycle;Max_cycle;Signal;HPM_P1;HPM_P2
2022/10/04 00:02:13;;;;;;;3.95;2.10;;;;;;;10.63;79.56;101047.69;1748222;79;21768;-87
2022/10/04 00:04:46;;;;;;;4.45;1.90;;;;;;;10.58;79.70;101048.40;1752280;80;21066;-87
2022/10/04 00:07:21;;;;;;;5.10;2.05;;;;;;;10.56;79.88;101047.47;1768709;80;21051;-87
2022/10/04 00:09:53;;;;;;;4.72;1.80;;;;;;;10.54;79.92;101044.78;1752614;79;21047;-87
2022/10/04 00:12:24;;;;;;;5.45;2.10;;;;;;;10.51;79.99;101042.08;1761980;79;21015;-84
2022/10/04 00:14:52;;;;;;;2.22;1.95;;;;;;;10.51;80.11;101043.40;1747832;80;22488;-88
2022/10/04 00:17:29;;;;;;;8.40;2.45;;;;;;;10.50;80.13;101042.48;1742739;80;21509;-83
2022/10/04 00:19:55;;;;;;;4.00;2.25;;;;;;;10.48;80.14;101040.66;1743137;80;21051;-87
2022/10/04 00:22:33;;;;;;;3.02;2.35;;;;;;;10.50;80.19;101038.96;1743128;80;21047;-87
2022/10/04 00:25:19;;;;;;;5.83;2.17;;;;;;;10.50;80.24;101037.22;1744582;80;21031;-82
2022/10/04 00:28:26;;;;;;;3.72;2.22;;;;;;;10.51;80.25;101039.45;1751599;81;21758;-86
2022/10/04 00:33:40;;;;;;;2.83;1.92;;;;;;;10.52;80.29;101039.90;1750580;80;22744;-86
2022/10/04 00:36:33;;;;;;;3.52;2.10;;;;;;;10.48;80.42;101038.03;1736035;81;21130;-86
2022/10/04 00:39:12;;;;;;;2.52;1.92;;;;;;;10.50;80.46;101040.28;1734158;82;21770;-87
2022/10/04 00:41:50;;;;;;;4.85;2.22;;;;;;;10.49;80.43;101047.30;1743697;81;21138;-87
2022/10/04 00:44:33;;;;;;;5.72;2.40;;;;;;;10.48;80.41;101049.88;1748651;81;21609;-87
2022/10/04 00:47:01;;;;;;;4.90;2.25;;;;;;;10.48;80.50;101047.23;1727654;81;21137;-87
2022/10/04 00:49:36;;;;;;;4.30;2.50;;;;;;;10.47;80.55;101040.17;1723143;83;21110;-87
2022/10/04 00:52:08;;;;;;;3.60;2.40;;;;;;;10.45;80.49;101041.88;1745066;81;22993;-83
2022/10/04 00:54:40;;;;;;;5.12;2.27;;;;;;;10.39;80.52;101041.70;1736041;81;21070;-87
2022/10/04 00:57:17;;;;;;;3.67;2.10;;;;;;;10.33;80.55;101042.41;1744241;81;21135;-84
2022/10/04 00:59:48;;;;;;;3.27;2.00;;;;;;;10.29;80.61;101044.02;1732365;81;21046;-87
2022/10/04 01:02:21;;;;;;;5.47;2.55;;;;;;;10.23;80.61;101037.66;1747952;81;21592;-84
2022/10/04 01:04:59;;;;;;;8.85;2.20;;;;;;;10.17;80.60;101044.93;1743059;82;21761;-87
2022/10/04 01:07:36;;;;;;;3.58;2.00;;;;;;;10.10;80.68;101049.55;1732721;81;21101;-84
2022/10/04 01:10:24;;;;;;;5.67;2.10;;;;;;;10.04;80.72;101049.34;1732846;81;21572;-84
2022/10/04 01:13:18;;;;;;;6.17;2.80;;;;;;;10.02;80.90;101047.08;1732009;81;21334;-87
2022/10/04 01:15:59;;;;;;;6.22;2.62;;;;;;;10.01;80.99;101041.38;1723801;81;21530;-83
2022/10/04 01:18:30;;;;;;;2.83;2.12;;;;;;;9.98;80.97;101036.00;1738229;82;22614;-84
2022/10/04 01:21:09;;;;;;;2.67;2.10;;;;;;;9.95;80.99;101032.86;1718511;82;21076;-85
2022/10/04 01:23:43;;;;;;;4.75;2.30;;;;;;;9.92;81.04;101040.64;1729748;81;21110;-87
2022/10/04 01:26:35;;;;;;;;;;;;;;;9.90;81.10;101043.22;1756750;81;21492;-84
2022/10/04 01:29:24;;;;;;;3.33;2.27;;;;;;;9.90;81.20;101042.33;1741855;81;20390;-83
2022/10/04 01:31:53;;;;;;;3.40;2.37;;;;;;;9.88;81.21;101042.70;1697212;82;21782;-83
2022/10/04 01:34:24;;;;;;;3.50;2.22;;;;;;;9.87;81.32;101042.22;1737556;82;21057;-86
2022/10/04 01:36:54;;;;;;;6.37;2.10;;;;;;;9.85;81.35;101042.59;1723870;82;21034;-85
2022/10/04 01:39:23;;;;;;;7.45;2.27;;;;;;;9.84;81.39;101046.09;1655363;85;21279;-82
2022/10/04 01:42:09;;;;;;;5.25;2.75;;;;;;;9.80;81.42;101043.77;1651240;84;21165;-83
2022/10/04 01:45:02;;;;;;;6.55;2.37;;;;;;;9.79;81.47;101047.66;1684860;84;21758;-84
2022/10/04 01:47:37;;;;;;;6.72;2.30;;;;;;;9.77;81.48;101050.66;1683071;84;21141;-85
2022/10/04 01:50:18;;;;;;;4.58;2.58;;;;;;;9.73;81.55;101050.55;1674805;84;21586;-84
2022/10/04 01:52:53;;;;;;;3.40;2.00;;;;;;;9.70;81.55;101054.81;1669840;84;21085;-83
2022/10/04 01:55:26;;;;;;;5.97;2.10;;;;;;;9.67;81.63;101051.67;1694072;83;21165;-85
2022/10/04 01:58:09;;;;;;;7.70;2.50;;;;;;;9.66;81.69;101055.55;1681468;83;25368;-83
2022/10/04 02:00:40;;;;;;;5.62;2.22;;;;;;;9.56;81.71;101037.70;1679841;84;21200;-83
2022/10/04 02:03:21;;;;;;;8.18;2.55;;;;;;;9.64;81.72;101054.19;1660278;85;21122;-83
2022/10/04 02:05:56;;;;;;;4.45;2.17;;;;;;;9.61;81.76;101052.78;1671184;85;22298;-86
2022/10/04 02:08:27;;;;;;;3.65;2.22;;;;;;;9.59;81.78;101045.67;1703589;84;21003;-83
2022/10/04 02:10:53;;;;;;;4.65;2.15;;;;;;;9.57;81.87;101063.13;1703523;84;21778;-84
2022/10/04 02:13:20;;;;;;;4.60;2.40;;;;;;;9.56;82.04;101055.67;1671288;84;21145;-83
2022/10/04 02:15:47;;;;;;;3.37;2.33;;;;;;;9.60;82.18;101057.55;1670725;85;21092;-86
2022/10/04 02:18:17;;;;;;;7.08;2.47;;;;;;;9.59;82.09;101053.16;1695899;84;21082;-87
2022/10/04 02:20:44;;;;;;;7.28;2.62;;;;;;;9.57;82.12;101060.50;1700995;84;21157;-87
2022/10/04 02:23:11;;;;;;;8.55;2.35;;;;;;;9.54;82.17;101058.24;1680123;84;21750;-83
2022/10/04 02:25:38;;;;;;;4.83;2.30;;;;;;;9.52;82.21;101057.30;1696447;84;21106;-83
2022/10/04 02:28:10;;;;;;;3.33;2.12;;;;;;;9.52;82.29;101058.61;1697308;84;21054;-82
2022/10/04 02:30:37;;;;;;;3.85;2.37;;;;;;;9.50;82.36;101056.36;1672582;84;21138;-82
2022/10/04 02:33:04;;;;;;;3.10;2.77;;;;;;;9.47;82.39;101054.92;1670695;85;21075;-86
2022/10/04 02:35:43;;;;;;;5.97;2.77;;;;;;;9.46;82.47;101057.50;1691789;84;23212;-85
2022/10/04 02:38:22;;;;;;;4.47;2.65;;;;;;;9.43;82.50;101060.04;1689711;84;21070;-83
2022/10/04 02:41:02;;;;;;;4.75;2.47;;;;;;;9.41;82.59;101061.30;1651899;85;21103;-85
2022/10/04 02:43:37;;;;;;;5.80;3.60;;;;;;;9.39;82.74;101062.98;1664606;84;21106;-86
2022/10/04 02:46:18;;;;;;;4.83;2.70;;;;;;;9.38;82.90;101061.17;1699580;84;21097;-85
2022/10/04 02:48:47;;;;;;;7.70;4.30;;;;;;;9.37;83.10;101065.97;1699820;84;21781;-85
2022/10/04 02:51:28;;;;;;;6.53;3.72;;;;;;;9.37;83.14;101071.66;1700646;84;21636;-82
2022/10/04 02:54:37;;;;;;;5.62;3.87;;;;;;;9.35;83.35;101068.97;1692642;84;21157;-83
2022/10/04 02:57:04;;;;;;;5.60;3.10;;;;;;;9.37;83.45;101068.60;1687729;84;21067;-83
2022/10/04 02:59:31;;;;;;;3.85;2.80;;;;;;;9.37;83.55;101069.91;1664791;84;21059;-83
2022/10/04 03:02:00;;;;;;;4.55;2.60;;;;;;;9.38;83.62;101071.69;1647563;86;21791;-82
2022/10/04 03:04:30;;;;;;;6.03;2.83;;;;;;;9.38;83.61;101070.37;1687221;84;22195;-86
2022/10/04 03:06:59;;;;;;;4.53;2.67;;;;;;;9.36;83.63;101074.68;1663104;86;21113;-82
2022/10/04 03:09:26;;;;;;;3.10;2.25;;;;;;;9.36;83.75;101070.73;1687858;84;22212;-82
2022/10/04 03:11:53;;;;;;;5.22;3.02;;;;;;;9.34;83.77;101067.17;1663900;86;21089;-86
2022/10/04 03:14:23;;;;;;;4.60;2.72;;;;;;;9.32;83.76;101068.42;1688712;84;21814;-83
2022/10/04 03:16:53;;;;;;;8.33;2.62;;;;;;;9.32;83.80;101070.16;1687563;84;21141;-86
2022/10/04 03:19:22;;;;;;;6.90;3.50;;;;;;;9.31;83.89;101072.34;1648355;86;21150;-86
2022/10/04 03:21:51;;;;;;;7.83;2.50;;;;;;;9.30;83.91;101063.97;1680647;85;21103;-85
2022/10/04 03:24:30;;;;;;;4.75;2.45;;;;;;;9.28;83.90;101068.28;1689901;84;21258;-88
2022/10/04 03:26:58;;;;;;;4.67;2.60;;;;;;;9.24;83.84;101067.70;1676924;85;22464;-86
2022/10/04 03:29:27;;;;;;;4.35;2.58;;;;;;;9.23;83.98;101072.47;1688332;84;21298;-82
2022/10/04 03:31:57;;;;;;;5.97;2.80;;;;;;;9.21;84.02;101069.77;1636699;84;21154;-82
2022/10/04 03:34:29;;;;;;;7.35;2.50;;;;;;;9.19;84.01;101066.63;1696069;84;21563;-85
2022/10/04 03:36:57;;;;;;;5.10;2.85;;;;;;;9.16;84.08;101062.17;1675789;83;21051;-82
2022/10/04 03:39:43;;;;;;;6.22;2.75;;;;;;;9.15;84.14;101066.52;1678847;84;21803;-85
2022/10/04 03:42:20;;;;;;;4.42;2.77;;;;;;;9.14;84.19;101068.69;1693962;84;21106;-82
2022/10/04 03:44:50;;;;;;;7.10;2.30;;;;;;;9.13;84.23;101065.99;1681481;84;21076;-82
2022/10/04 03:47:23;;;;;;;7.05;2.50;;;;;;;9.11;84.27;101072.50;1694997;84;21117;-86
2022/10/04 03:49:51;;;;;;;5.70;2.58;;;;;;;9.10;84.35;101069.81;1680339;84;21430;-86
2022/10/04 03:52:26;;;;;;;4.10;2.37;;;;;;;9.09;84.47;101078.12;1682866;83;22495;-82
2022/10/04 03:54:55;;;;;;;4.67;2.75;;;;;;;9.11;84.54;101080.80;1687567;84;21115;-81
2022/10/04 03:57:24;;;;;;;6.53;2.90;;;;;;;9.10;84.56;101088.20;1676569;84;21093;-81
2022/10/04 03:59:51;;;;;;;8.08;2.60;;;;;;;9.09;84.70;101084.69;1686590;84;21081;-84
2022/10/04 04:02:35;;;;;;;4.85;2.92;;;;;;;9.10;84.80;101080.31;1708704;82;21031;-86
2022/10/04 04:05:39;;;;;;;3.42;2.40;;;;;;;9.10;84.82;101085.17;1675358;84;21826;-80
2022/10/04 04:08:19;;;;;;;5.00;2.17;;;;;;;9.10;84.87;101093.05;1705253;83;21183;-86
2022/10/04 04:10:49;;;;;;;4.22;2.25;;;;;;;9.12;84.90;101086.52;1702130;83;21147;-80
2022/10/04 04:13:27;;;;;;;6.12;2.40;;;;;;;9.10;84.92;101089.11;1690234;83;21343;-88
2022/10/04 04:15:59;;;;;;;5.03;2.40;;;;;;;9.11;84.97;101099.19;1684069;84;21537;-86
2022/10/04 04:18:37;;;;;;;2.90;2.20;;;;;;;9.10;84.86;101089.51;1647067;85;21937;-86
2022/10/04 04:21:06;;;;;;;4.10;2.20;;;;;;;9.08;84.87;101091.19;1689220;84;21584;-84
2022/10/04 04:23:42;;;;;;;4.85;2.42;;;;;;;9.06;84.91;101096.80;1677965;84;21110;-83
2022/10/04 04:26:41;;;;;;;5.35;2.83;;;;;;;9.08;85.01;101103.00;1690679;84;21086;-82
2022/10/04 04:29:34;;;;;;;6.75;2.33;;;;;;;9.08;85.08;101101.69;1686306;84;21094;-83
2022/10/04 04:32:22;;;;;;;5.33;2.70;;;;;;;9.09;85.25;101099.55;1690324;84;21780;-83
2022/10/04 04:34:53;;;;;;;4.22;2.35;;;;;;;9.11;85.34;101111.89;1645923;87;21054;-83
2022/10/04 04:37:20;;;;;;;6.95;3.05;;;;;;;9.13;85.40;101113.27;1652412;85;21535;-84
2022/10/04 04:39:53;;;;;;;11.03;3.08;;;;;;;9.12;85.39;101107.13;1676562;84;21126;-83
2022/10/04 04:42:22;;;;;;;4.60;2.87;;;;;;;9.15;85.48;101116.84;1696420;84;21629;-84
2022/10/04 04:45:15;;;;;;;5.95;2.20;;;;;;;9.15;85.48;101114.22;1645583;86;22707;-82
2022/10/04 04:47:45;;;;;;;6.28;2.45;;;;;;;9.16;85.52;101126.52;1694329;84;22019;-84
2022/10/04 04:50:23;;;;;;;8.73;2.65;;;;;;;9.18;85.55;101127.87;1692491;84;21083;-83
2022/10/04 04:53:06;;;;;;;7.12;2.40;;;;;;;9.09;85.66;101108.31;1684446;84;22189;-85
2022/10/04 04:55:44;;;;;;;5.23;2.57;;;;;;;9.22;85.77;101129.80;1682208;84;21093;-83
2022/10/04 04:58:20;;;;;;;5.55;2.37;;;;;;;9.25;85.88;101132.51;1683769;84;22438;-83
2022/10/04 05:00:57;;;;;;;6.97;2.62;;;;;;;9.27;85.85;101130.83;1695149;84;21109;-83
2022/10/04 05:03:24;;;;;;;5.17;2.50;;;;;;;9.31;85.85;101143.27;1691626;84;21091;-84
2022/10/04 05:05:53;;;;;;;5.62;2.65;;;;;;;9.32;85.86;101139.78;1680356;84;21112;-83
2022/10/04 05:08:26;;;;;;;3.60;2.20;;;;;;;9.36;85.91;101140.79;1694366;84;21181;-82
2022/10/04 05:11:11;;;;;;;4.97;2.40;;;;;;;9.37;85.90;101142.59;1693551;84;21830;-82
2022/10/04 05:14:04;;;;;;;7.92;2.30;;;;;;;9.39;85.91;101135.23;1678174;84;21094;-83
2022/10/04 05:16:49;;;;;;;7.30;2.37;;;;;;;9.41;85.84;101140.11;1663788;85;21173;-82
2022/10/04 05:19:30;;;;;;;6.90;2.55;;;;;;;9.44;85.75;101143.26;1648420;85;21625;-85
2022/10/04 05:21:59;;;;;;;3.30;2.17;;;;;;;9.45;85.75;101138.49;1679314;84;21141;-82
2022/10/04 05:24:34;;;;;;;4.85;2.45;;;;;;;9.48;85.86;101146.50;1699718;84;22551;-83
2022/10/04 05:27:24;;;;;;;4.60;2.20;;;;;;;9.51;85.94;101139.59;1684111;84;22013;-84
2022/10/04 05:30:34;;;;;;;4.85;2.33;;;;;;;9.59;85.98;101145.54;1703844;84;21830;-84
2022/10/04 05:33:09;;;;;;;3.80;2.52;;;;;;;9.65;86.05;101149.30;1643321;85;21487;-81
2022/10/04 05:36:17;;;;;;;8.98;2.80;;;;;;;9.72;86.05;101153.02;1663196;84;21097;-86
2022/10/04 05:39:15;;;;;;;5.83;2.67;;;;;;;9.79;86.09;101148.45;1690868;84;21811;-84
2022/10/04 05:42:00;;;;;;;4.92;2.87;;;;;;;9.88;86.10;101155.77;1638811;84;22310;-87
2022/10/04 05:44:31;;;;;;;8.05;2.95;;;;;;;9.96;86.06;101162.17;1690739;84;21133;-84
2022/10/04 05:47:00;;;;;;;5.72;3.02;;;;;;;10.02;86.01;101158.86;1670206;84;21095;-84
2022/10/04 05:49:38;;;;;;;5.37;3.05;;;;;;;10.09;85.99;101170.95;1651941;84;21698;-85
2022/10/04 05:52:25;;;;;;;4.25;2.75;;;;;;;10.16;85.94;101169.86;1693290;84;21829;-83
2022/10/04 05:55:30;;;;;;;6.70;3.30;;;;;;;10.21;85.88;101169.17;1702180;84;21043;-83
2022/10/04 05:58:09;;;;;;;5.37;3.02;;;;;;;10.27;85.77;101176.37;1582188;89;21056;-85
2022/10/04 06:00:44;;;;;;;6.15;2.47;;;;;;;10.35;85.74;101170.95;1723476;82;21075;-84
2022/10/04 06:03:37;;;;;;;5.05;2.58;;;;;;;10.42;85.66;101175.58;1715068;82;21062;-85
2022/10/04 06:06:55;;;;;;;7.20;3.00;;;;;;;10.50;85.67;101179.77;1743487;81;21800;-88
2022/10/04 06:09:52;;;;;;;7.22;2.95;;;;;;;10.57;85.57;101183.08;1730507;81;21568;-87
2022/10/04 06:12:32;;;;;;;5.58;2.50;;;;;;;10.65;85.52;101183.32;1746102;81;21134;-87
2022/10/04 06:15:32;;;;;;;5.50;2.77;;;;;;;10.72;85.44;101185.30;1751223;81;21094;-87
2022/10/04 06:18:19;;;;;;;4.65;2.77;;;;;;;10.78;85.42;101188.55;1752785;81;21086;-83
2022/10/04 06:21:16;;;;;;;5.03;2.35;;;;;;;10.85;85.33;101187.91;1739257;81;22586;-82
2022/10/04 06:23:51;;;;;;;7.90;2.92;;;;;;;10.93;85.26;101191.66;1731034;81;21066;-83
2022/10/04 06:26:23;;;;;;;4.47;2.70;;;;;;;11.01;85.22;101198.47;1724024;81;21046;-87
2022/10/04 06:29:01;;;;;;;3.90;2.30;;;;;;;11.07;85.14;101197.33;1732202;81;21066;-87
2022/10/04 06:31:48;;;;;;;3.58;2.20;;;;;;;11.14;85.07;101201.94;1730411;81;21540;-83
2022/10/04 06:34:47;;;;;;;5.85;2.37;;;;;;;11.22;85.00;101196.89;1752136;81;21759;-82
2022/10/04 06:37:31;;;;;;;6.42;2.37;;;;;;;11.29;84.94;101205.02;1724855;81;21539;-83
2022/10/04 06:40:32;;;;;;;6.37;2.90;;;;;;;11.38;84.80;101203.52;1735170;81;21104;-86
2022/10/04 06:43:44;;;;;;;3.60;2.33;;;;;;;11.45;84.77;101210.77;1707016;83;21734;-87
2022/10/04 06:46:16;;;;;;;6.42;2.72;;;;;;;11.57;84.75;101215.05;1752917;81;21070;-87
2022/10/04 06:48:55;;;;;;;5.72;2.77;;;;;;;11.67;84.57;101212.23;1750862;81;21802;-83
2022/10/04 06:51:55;;;;;;;4.72;3.02;;;;;;;11.76;84.44;101218.20;1737979;81;21125;-87
2022/10/04 06:55:06;;;;;;;4.97;2.42;;;;;;;11.85;84.31;101221.98;1752701;81;21098;-86
2022/10/04 06:58:11;;;;;;;5.00;2.50;;;;;;;11.96;84.19;101222.31;1749745;81;21143;-86
2022/10/04 07:00:59;;;;;;;4.83;2.72;;;;;;;12.05;83.86;101233.12;1753118;81;21085;-87
2022/10/04 07:03:31;;;;;;;6.83;2.12;;;;;;;12.11;83.66;101240.30;1749105;81;21774;-87
2022/10/04 07:06:03;;;;;;;5.15;1.98;;;;;;;12.17;83.47;101238.25;1740185;81;21095;-87
2022/10/04 07:08:51;;;;;;;3.77;2.30;;;;;;;12.23;83.47;101235.33;1728741;81;21071;-88
2022/10/04 07:11:31;;;;;;;3.33;2.27;;;;;;;12.38;83.54;101237.47;1749978;81;21058;-87
2022/10/04 07:14:03;;;;;;;5.72;1.87;;;;;;;12.53;83.27;101230.80;1752929;81;21078;-84
2022/10/04 07:16:55;;;;;;;4.70;2.22;;;;;;;12.63;82.80;101240.72;1752910;81;21877;-84
2022/10/04 07:19:47;;;;;;;4.17;1.90;;;;;;;12.72;82.46;101238.30;1739883;81;21113;-83
2022/10/04 07:22:43;;;;;;;3.50;2.15;;;;;;;12.84;82.24;101241.69;1752192;81;21336;-88
2022/10/04 07:25:21;;;;;;;3.40;2.00;;;;;;;12.98;82.00;101244.64;1741724;81;21122;-87
2022/10/04 07:31:24;;;;;;;3.08;2.00;;;;;;;13.12;81.42;101258.16;1729746;81;21833;-83
2022/10/04 07:33:57;;;;;;;5.03;2.00;;;;;;;13.21;80.98;101264.97;1700048;82;21644;-83
2022/10/04 07:36:49;;;;;;;3.92;2.05;;;;;;;13.38;81.09;101262.33;1714686;82;21106;-83
2022/10/04 07:39:27;;;;;;;3.60;1.77;;;;;;;13.50;80.92;101263.02;1727266;82;21105;-83
2022/10/04 07:41:56;;;;;;;3.65;2.25;;;;;;;13.63;80.40;101269.45;1745035;82;21098;-83
2022/10/04 17:47:12;;;;;;;48.05;36.20;;;;;;;10.25;70.09;101608.25;1666478;84;21161;-86
2022/10/04 17:55:55;;;;;;;25.97;17.25;;;;;;;10.07;70.61;101600.06;1669525;85;21106;-83
2022/10/04 17:58:39;;;;;;;29.95;21.73;;;;;;;10.12;70.78;101609.48;1624239;87;21774;-91
2022/10/04 18:01:29;;;;;;;22.07;15.48;;;;;;;10.09;70.89;101608.03;1640990;85;21134;-81
2022/10/04 18:04:29;;;;;;;18.42;10.15;;;;;;;10.07;71.00;101609.70;1661794;85;21071;-87
2022/10/04 18:07:18;;;;;;;13.55;9.88;;;;;;;10.04;71.13;101618.38;1658380;85;21102;-81
2022/10/04 18:09:58;;;;;;;14.18;8.83;;;;;;;10.01;71.28;101615.61;1656185;85;21085;-91
2022/10/04 18:12:41;;;;;;;11.10;7.85;;;;;;;9.98;71.35;101618.53;1667581;85;22722;-83
2022/10/04 18:15:31;;;;;;;13.90;9.78;;;;;;;9.95;71.56;101617.08;1667298;85;21790;-81
2022/10/04 18:18:20;;;;;;;16.52;13.78;;;;;;;9.90;71.61;101617.78;1659705;85;21082;-89
2022/10/04 18:20:58;;;;;;;24.80;18.10;;;;;;;9.88;71.80;101619.46;1673432;85;21075;-92
2022/10/04 18:23:29;;;;;;;16.75;12.00;;;;;;;9.86;71.94;101621.13;1665801;85;21119;-82
2022/10/04 18:26:17;;;;;;;15.65;9.95;;;;;;;9.84;71.99;101628.06;1651899;85;21807;-89
2022/10/04 18:28:48;;;;;;;11.40;8.78;;;;;;;9.83;72.17;101629.30;1644283;85;21082;-84
2022/10/04 18:31:40;;;;;;;15.63;8.85;;;;;;;9.82;72.34;101632.78;1675403;85;21137;-81
2022/10/04 18:34:20;;;;;;;17.98;12.35;;;;;;;9.82;72.45;101632.78;1674813;85;21055;-81
2022/10/04 18:37:18;;;;;;;20.43;12.98;;;;;;;9.81;72.66;101631.86;1672444;85;21091;-89
2022/10/04 18:39:47;;;;;;;28.85;18.80;;;;;;;9.85;72.81;101638.16;1674749;84;21781;-87
2022/10/04 18:42:25;;;;;;;25.50;17.85;;;;;;;9.91;73.05;101641.06;1672572;84;21595;-80
2022/10/04 18:44:58;;;;;;;24.90;14.87;;;;;;;9.96;73.09;101639.92;1675128;85;21525;-80
2022/10/04 18:47:35;;;;;;;16.15;12.43;;;;;;;10.01;73.08;101642.34;1637456;87;21084;-80
2022/10/04 18:50:23;;;;;;;22.70;14.00;;;;;;;10.04;73.14;101636.79;1675408;85;21458;-81
2022/10/04 18:53:06;;;;;;;17.00;12.73;;;;;;;10.09;73.14;101641.80;1671836;84;21766;-88
2022/10/04 18:55:47;;;;;;;19.60;11.28;;;;;;;10.11;73.14;101635.30;1675646;85;21074;-86
2022/10/04 19:02:07;;;;;;;18.02;8.40;;;;;;;10.14;73.29;101633.23;1671527;85;21085;-80
2022/10/04 19:05:06;;;;;;;16.70;6.50;;;;;;;10.12;73.42;101631.42;1670983;85;21082;-87
2022/10/04 19:08:09;;;;;;;14.33;5.65;;;;;;;10.20;73.50;101646.63;1669953;85;21787;-86
2022/10/04 19:11:06;;;;;;;11.65;5.45;;;;;;;10.23;73.67;101653.30;1676689;85;21050;-88
2022/10/04 19:14:15;;;;;;;12.40;5.95;;;;;;;10.27;73.85;101657.45;1669215;85;21082;-81
2022/10/04 19:17:08;;;;;;;14.35;6.42;;;;;;;10.33;73.98;101664.73;1676218;85;21084;-81
2022/10/04 19:19:52;;;;;;;14.38;5.17;;;;;;;10.40;74.07;101659.28;1675866;85;21063;-89
2022/10/04 19:22:47;;;;;;;14.10;5.45;;;;;;;10.47;74.15;101660.02;1676171;84;21775;-82
2022/10/04 19:25:39;;;;;;;13.43;5.20;;;;;;;10.54;74.20;101662.06;1659805;85;21600;-89
2022/10/04 19:28:24;;;;;;;12.63;4.90;;;;;;;10.61;74.19;101665.42;1675682;85;21556;-85
2022/10/04 19:31:09;;;;;;;;;;;;;;;10.67;74.19;101657.75;1677702;84;21564;-84
2022/10/04 19:34:08;;;;;;;15.05;5.65;;;;;;;10.73;74.26;101653.58;1669500;84;20476;-80
2022/10/04 19:37:01;;;;;;;15.23;5.62;;;;;;;10.79;74.20;101647.22;1646502;85;21788;-81
2022/10/04 19:39:38;;;;;;;17.00;5.33;;;;;;;10.84;74.20;101647.88;1657912;85;21090;-87
2022/10/04 19:42:18;;;;;;;13.65;5.08;;;;;;;10.89;74.15;101646.31;1654955;85;21671;-81
2022/10/04 19:44:59;;;;;;;16.93;5.50;;;;;;;10.92;74.13;101632.36;1657752;84;21151;-88
2022/10/04 19:47:56;;;;;;;12.43;5.75;;;;;;;10.95;74.14;101627.64;1668210;85;21093;-88
2022/10/04 19:50:31;;;;;;;12.30;4.90;;;;;;;10.96;74.09;101618.88;1666718;85;21978;-81
2022/10/04 19:53:19;;;;;;;11.65;5.12;;;;;;;10.97;74.10;101625.53;1672866;85;21089;-88
2022/10/04 19:55:58;;;;;;;14.03;5.45;;;;;;;10.98;74.11;101629.05;1670002;85;21089;-87
2022/10/04 19:58:43;;;;;;;12.37;5.55;;;;;;;10.98;74.10;101635.64;1674435;85;21063;-81
2022/10/04 20:01:16;;;;;;;17.37;6.58;;;;;;;10.98;74.12;101631.69;1673777;85;21607;-87
2022/10/04 20:03:44;;;;;;;15.17;5.80;;;;;;;10.96;74.08;101626.78;1669980;85;22675;-81
2022/10/04 20:06:24;;;;;;;17.75;6.67;;;;;;;10.91;74.11;101626.63;1671104;85;21591;-88
2022/10/04 20:08:55;;;;;;;16.62;5.42;;;;;;;10.90;74.15;101626.14;1647567;85;21080;-89
2022/10/04 20:11:28;;;;;;;14.43;5.03;;;;;;;10.88;74.24;101628.70;1645355;85;21099;-89
2022/10/04 20:14:20;;;;;;;11.12;5.22;;;;;;;10.86;74.27;101629.50;1675033;85;21054;-80
2022/10/04 20:16:55;;;;;;;17.40;5.80;;;;;;;10.82;74.27;101629.80;1674667;85;21772;-80
2022/10/04 20:19:36;;;;;;;14.58;5.22;;;;;;;10.77;74.34;101630.46;1673999;85;21097;-82
2022/10/04 20:22:17;;;;;;;15.43;5.15;;;;;;;10.73;74.42;101639.09;1641084;86;21477;-82
2022/10/04 20:24:48;;;;;;;16.97;5.95;;;;;;;10.68;74.53;101646.40;1672183;84;21608;-81
2022/10/04 20:27:35;;;;;;;15.98;6.28;;;;;;;10.66;74.68;101652.03;1674506;85;21062;-80
2022/10/04 20:30:03;;;;;;;18.90;7.30;;;;;;;10.66;74.92;101650.71;1673895;85;22695;-80
2022/10/04 20:32:40;;;;;;;15.23;6.42;;;;;;;10.66;75.03;101642.81;1658352;84;21486;-87
2022/10/04 20:35:15;;;;;;;16.82;6.62;;;;;;;10.66;75.11;101635.31;1668220;85;21042;-80
2022/10/04 20:37:58;;;;;;;15.20;6.20;;;;;;;10.66;75.19;101633.59;1659129;85;21008;-87
2022/10/04 20:40:31;;;;;;;;;;;;;;;10.66;75.23;101637.55;1667421;85;21119;-88
2022/10/04 20:43:20;;;;;;;14.23;5.92;;;;;;;10.65;75.33;101643.63;1659640;85;21793;-86
2022/10/04 20:45:53;;;;;;;12.37;5.45;;;;;;;10.63;75.28;101636.09;1657606;85;21608;-86
2022/10/04 20:48:23;;;;;;;11.45;4.58;;;;;;;10.60;75.34;101634.65;1671705;85;21093;-86
2022/10/04 20:50:51;;;;;;;14.75;5.30;;;;;;;10.57;75.37;101633.23;1674574;85;21237;-89
2022/10/04 20:53:28;;;;;;;9.20;4.05;;;;;;;10.55;75.43;101641.89;1664222;85;21088;-79
2022/10/04 20:56:29;;;;;;;15.00;4.78;;;;;;;10.55;75.58;101643.20;1678876;84;23093;-86
2022/10/04 20:59:11;;;;;;;12.30;4.40;;;;;;;10.52;75.61;101647.94;1676471;85;21026;-89
2022/10/04 21:01:42;;;;;;;11.55;4.33;;;;;;;10.49;75.73;101647.41;1672359;83;21102;-80
2022/10/04 21:04:40;;;;;;;16.50;4.65;;;;;;;10.48;75.78;101648.23;1669486;85;21569;-87
2022/10/04 21:07:06;;;;;;;8.58;3.33;;;;;;;10.44;75.85;101654.22;1620939;87;21080;-80
2022/10/04 21:09:34;;;;;;;11.12;3.95;;;;;;;10.43;75.97;101660.73;1626041;86;21788;-80
2022/10/04 21:12:02;;;;;;;14.78;4.22;;;;;;;10.40;76.06;101661.91;1675787;84;21038;-87
2022/10/04 21:14:34;;;;;;;19.75;5.62;;;;;;;10.37;76.12;101660.07;1657514;85;21595;-86
2022/10/04 21:17:25;;;;;;;14.28;4.90;;;;;;;10.35;76.22;101665.69;1666194;85;21121;-88
2022/10/04 21:19:52;;;;;;;11.93;4.65;;;;;;;10.34;76.31;101649.83;1681768;85;21081;-89
2022/10/04 21:22:31;;;;;;;14.98;4.65;;;;;;;10.32;76.37;101655.03;1656670;85;21747;-86
2022/10/04 21:25:04;;;;;;;11.95;3.95;;;;;;;10.29;76.47;101649.20;1679977;85;21050;-90
2022/10/04 21:27:42;;;;;;;13.58;4.12;;;;;;;10.29;76.58;101654.89;1627980;87;21659;-82
2022/10/04 21:30:21;;;;;;;11.43;4.25;;;;;;;10.27;76.66;101650.87;1662124;85;21053;-90
2022/10/04 21:32:48;;;;;;;13.62;3.90;;;;;;;10.28;76.74;101650.45;1656962;85;21066;-81
2022/10/04 21:35:15;;;;;;;10.85;3.95;;;;;;;10.27;76.80;101645.62;1675574;83;21765;-80
2022/10/04 21:37:44;;;;;;;14.07;4.22;;;;;;;10.28;76.90;101642.55;1668627;85;21030;-89
2022/10/04 21:40:12;;;;;;;13.38;4.22;;;;;;;10.28;76.89;101634.23;1663796;85;22048;-88
2022/10/04 21:42:39;;;;;;;13.72;4.87;;;;;;;10.28;76.92;101639.50;1663094;85;21046;-88
2022/10/04 21:45:07;;;;;;;11.85;4.37;;;;;;;10.29;76.98;101636.47;1685167;85;21646;-87
2022/10/04 21:47:34;;;;;;;14.23;3.77;;;;;;;10.30;76.97;101639.20;1671516;84;21730;-80
2022/10/04 21:50:01;;;;;;;13.65;4.50;;;;;;;10.30;76.96;101647.45;1646283;86;21078;-87
2022/10/04 21:52:28;;;;;;;11.60;4.35;;;;;;;10.30;76.95;101646.14;1652680;85;21066;-87
2022/10/04 21:54:55;;;;;;;11.83;4.33;;;;;;;10.30;76.99;101651.41;1676304;84;21074;-86
2022/10/04 21:57:22;;;;;;;9.60;3.50;;;;;;;10.28;76.98;101641.24;1676361;84;21331;-87
2022/10/04 21:59:49;;;;;;;11.63;4.25;;;;;;;10.26;76.99;101645.12;1670725;84;21826;-88
2022/10/04 22:05:57;;;;;;;11.68;4.42;;;;;;;10.28;77.16;101660.55;1668403;85;21078;-80
2022/10/04 22:08:24;;;;;;;10.03;4.37;;;;;;;10.33;77.28;101659.47;1657976;84;21067;-80
2022/10/04 22:10:51;;;;;;;13.40;4.90;;;;;;;10.36;77.32;101664.88;1661551;84;21604;-88
2022/10/04 22:13:18;;;;;;;15.60;5.95;;;;;;;10.37;77.27;101653.48;1650293;85;21399;-80
2022/10/04 22:15:45;;;;;;;18.45;7.70;;;;;;;10.38;77.22;101653.06;1660984;85;21387;-81
2022/10/04 22:18:12;;;;;;;17.48;7.53;;;;;;;10.36;77.11;101652.11;1657800;85;21587;-87
2022/10/04 22:20:39;;;;;;;14.47;6.83;;;;;;;10.33;77.03;101641.48;1665895;84;21062;-87
2022/10/04 22:23:17;;;;;;;15.53;7.22;;;;;;;10.30;77.04;101632.63;1669901;85;21054;-80
2022/10/04 22:25:44;;;;;;;16.05;7.65;;;;;;;10.27;76.98;101621.93;1665774;84;22615;-88
2022/10/04 22:28:26;;;;;;;22.60;7.70;;;;;;;10.24;76.93;101611.70;1669134;85;21077;-88
2022/10/04 22:30:54;;;;;;;20.65;7.08;;;;;;;10.20;76.94;101607.16;1649795;85;21346;-87
2022/10/04 22:33:34;;;;;;;16.15;6.58;;;;;;;10.18;76.89;101614.98;1670058;84;21082;-86
2022/10/04 22:36:26;;;;;;;16.80;7.30;;;;;;;10.16;76.96;101623.66;1664866;84;21074;-87
2022/10/04 22:39:09;;;;;;;12.15;6.12;;;;;;;10.12;77.05;101627.47;1677287;84;21841;-86
2022/10/04 22:41:43;;;;;;;17.90;5.70;;;;;;;10.09;77.09;101617.23;1650020;84;28517;-87
2022/10/04 22:44:22;;;;;;;17.57;5.67;;;;;;;10.07;77.21;101609.28;1640147;85;21070;-86